createdAt,value
2023-04-29T00:00:08.731Z,17.70
2023-04-29T00:02:35.952Z,17.20
2023-04-29T00:05:05.809Z,17.60
2023-04-29T00:07:32.922Z,17.90
2023-04-29T00:10:00.027Z,17.80
2023-04-29T00:12:28.113Z,17.80
2023-04-29T00:14:54.914Z,17.80
2023-04-29T00:17:21.740Z,17.60
2023-04-29T00:19:48.531Z,17.60
2023-04-29T00:22:15.608Z,17.00
2023-04-29T00:24:42.795Z,17.40
2023-04-29T00:27:11.826Z,17.20
2023-04-29T00:29:38.624Z,17.40
2023-04-29T00:32:05.619Z,17.60
2023-04-29T00:34:32.355Z,17.60
2023-04-29T00:36:59.138Z,17.60
2023-04-29T00:39:25.952Z,17.70
2023-04-29T00:41:53.341Z,17.80
2023-04-29T00:44:20.104Z,17.90
2023-04-29T00:46:47.953Z,17.90
2023-04-29T00:49:15.082Z,17.80
2023-04-29T00:51:42.432Z,17.90
2023-04-29T00:54:09.604Z,18.00
2023-04-29T00:56:37.745Z,17.90
2023-04-29T00:59:05.802Z,17.80
2023-04-29T01:01:32.964Z,17.80
2023-04-29T01:04:00.437Z,17.90
2023-04-29T01:06:47.652Z,17.80
2023-04-29T01:09:39.707Z,17.80
2023-04-29T01:12:29.790Z,17.70
2023-04-29T01:15:22.888Z,17.70
2023-04-29T01:17:55.165Z,17.70
2023-04-29T01:20:24.421Z,17.70
2023-04-29T01:22:51.275Z,17.60
2023-04-29T01:25:18.270Z,17.80
2023-04-29T01:28:07.654Z,17.70
2023-04-29T01:30:53.053Z,17.70
2023-04-29T01:34:04.008Z,17.40
2023-04-29T01:37:06.194Z,17.60
2023-04-29T01:39:56.683Z,17.40
2023-04-29T01:42:35.687Z,17.20
2023-04-29T01:45:07.839Z,17.40
2023-04-29T01:47:36.741Z,17.50
2023-04-29T01:50:03.858Z,17.50
2023-04-29T01:52:30.656Z,17.40
2023-04-29T01:54:57.597Z,17.40
2023-04-29T01:57:24.427Z,17.30
2023-04-29T01:59:51.417Z,17.30
2023-04-29T02:02:21.596Z,17.40
2023-04-29T02:04:49.538Z,17.20
2023-04-29T02:07:17.107Z,17.20
2023-04-29T02:09:43.850Z,17.20
2023-04-29T02:12:10.727Z,17.10
2023-04-29T02:14:37.972Z,17.30
2023-04-29T02:17:04.953Z,17.20
2023-04-29T02:19:31.731Z,17.20
2023-04-29T02:21:58.515Z,17.10
2023-04-29T02:24:25.335Z,17.00
2023-04-29T02:26:52.956Z,17.10
2023-04-29T02:29:19.727Z,16.70
2023-04-29T02:31:46.606Z,16.80
2023-04-29T02:34:13.428Z,16.80
2023-04-29T02:36:40.188Z,16.90
2023-04-29T02:39:07.102Z,17.00
2023-04-29T02:41:33.949Z,17.20
2023-04-29T02:44:00.789Z,17.20
2023-04-29T02:46:27.611Z,17.20
2023-04-29T02:48:54.428Z,17.30
2023-04-29T02:51:21.237Z,17.30
2023-04-29T02:53:47.984Z,17.10
2023-04-29T02:56:14.829Z,17.10
2023-04-29T02:58:42.259Z,17.30
2023-04-29T03:01:09.199Z,17.20
2023-04-29T03:03:36.340Z,17.20
2023-04-29T03:06:03.589Z,17.30
2023-04-29T03:08:30.361Z,17.30
2023-04-29T03:10:57.125Z,17.40
2023-04-29T03:13:23.908Z,17.50
2023-04-29T03:15:50.681Z,17.50
2023-04-29T03:18:17.425Z,17.50
2023-04-29T03:20:44.193Z,17.50
2023-04-29T03:23:11.028Z,17.50
2023-04-29T03:25:37.896Z,17.60
2023-04-29T03:28:04.686Z,17.70
2023-04-29T03:30:31.462Z,17.70
2023-04-29T03:32:58.506Z,17.60
2023-04-29T03:35:25.584Z,17.70
2023-04-29T03:37:52.360Z,17.70
2023-04-29T03:40:19.276Z,17.70
2023-04-29T03:42:46.191Z,17.70
2023-04-29T03:45:14.306Z,17.70
2023-04-29T03:47:41.526Z,17.70
2023-04-29T03:50:09.073Z,17.70
2023-04-29T03:52:39.098Z,17.70
2023-04-29T03:55:06.242Z,17.70
2023-04-29T03:57:32.974Z,17.50
2023-04-29T03:59:59.786Z,17.60
2023-04-29T04:02:26.854Z,17.70
2023-04-29T04:04:55.302Z,17.60
2023-04-29T04:07:22.167Z,17.70
2023-04-29T04:09:49.271Z,17.70
2023-04-29T04:12:16.053Z,17.60
2023-04-29T04:14:42.818Z,17.70
2023-04-29T04:17:09.585Z,17.80
2023-04-29T04:19:36.423Z,17.60
2023-04-29T04:22:04.753Z,17.70
2023-04-29T04:24:31.553Z,17.80
2023-04-29T04:26:58.388Z,17.20
2023-04-29T04:29:25.246Z,16.80
2023-04-29T04:31:52.042Z,16.50
2023-04-29T04:34:18.884Z,16.10
2023-04-29T04:36:45.814Z,16.20
2023-04-29T04:39:12.598Z,15.90
2023-04-29T04:41:39.533Z,15.90
2023-04-29T04:44:06.351Z,15.70
2023-04-29T04:46:33.192Z,15.80
2023-04-29T04:48:59.933Z,16.20
2023-04-29T04:51:28.827Z,16.00
2023-04-29T04:53:55.812Z,15.90
2023-04-29T04:56:22.655Z,16.00
2023-04-29T04:58:49.436Z,15.90
2023-04-29T05:01:16.251Z,15.60
2023-04-29T05:03:43.222Z,15.40
2023-04-29T05:06:10.098Z,15.50
2023-04-29T05:08:36.867Z,15.50
2023-04-29T05:11:03.699Z,15.40
2023-04-29T05:13:30.544Z,15.20
2023-04-29T05:15:57.384Z,15.40
2023-04-29T05:18:24.150Z,15.50
2023-04-29T05:20:50.895Z,15.00
2023-04-29T05:23:17.661Z,15.40
2023-04-29T05:25:44.440Z,14.90
2023-04-29T05:28:11.170Z,14.80
2023-04-29T05:30:38.127Z,14.90
2023-04-29T05:33:05.118Z,15.00
2023-04-29T05:35:32.193Z,14.80
2023-04-29T05:37:58.914Z,14.90
2023-04-29T05:40:25.794Z,15.00
2023-04-29T05:42:52.565Z,15.40
2023-04-29T05:45:19.377Z,15.50
2023-04-29T05:47:46.398Z,15.20
2023-04-29T05:50:13.278Z,15.40
2023-04-29T05:52:40.080Z,15.40
2023-04-29T05:55:07.100Z,15.70
2023-04-29T05:57:33.885Z,15.40
2023-04-29T06:00:00.787Z,15.70
2023-04-29T06:02:28.234Z,15.80
2023-04-29T06:04:55.389Z,15.80
2023-04-29T06:07:22.902Z,15.80
2023-04-29T06:09:50.477Z,15.20
2023-04-29T06:12:17.402Z,15.70
2023-04-29T06:14:44.273Z,15.80
2023-04-29T06:17:12.330Z,16.10
2023-04-29T06:19:39.120Z,15.60
2023-04-29T06:22:05.909Z,15.90
2023-04-29T06:24:32.695Z,15.80
2023-04-29T06:26:59.453Z,16.00
2023-04-29T06:29:26.248Z,16.10
2023-04-29T06:31:54.203Z,15.90
2023-04-29T06:34:21.019Z,15.70
2023-04-29T06:36:47.841Z,15.90
2023-04-29T06:39:15.016Z,16.50
2023-04-29T06:41:41.793Z,16.40
2023-04-29T06:44:08.690Z,16.40
2023-04-29T06:46:35.955Z,16.60
2023-04-29T06:49:02.808Z,16.00
2023-04-29T06:51:29.656Z,16.40
2023-04-29T06:53:56.424Z,17.00
2023-04-29T06:56:23.828Z,16.90
2023-04-29T06:58:50.630Z,16.40
2023-04-29T07:01:17.462Z,17.00
2023-04-29T07:03:44.542Z,17.00
2023-04-29T07:06:11.480Z,16.90
2023-04-29T07:08:38.322Z,16.60
2023-04-29T07:11:05.252Z,17.00
2023-04-29T07:13:32.011Z,17.00
2023-04-29T07:15:58.929Z,17.00
2023-04-29T07:18:26.113Z,16.40
2023-04-29T07:20:53.048Z,17.00
2023-04-29T07:23:19.903Z,17.10
2023-04-29T07:25:46.699Z,16.60
2023-04-29T07:28:13.465Z,16.90
2023-04-29T07:30:40.281Z,16.70
2023-04-29T07:33:07.074Z,16.50
2023-04-29T07:35:34.068Z,16.50
2023-04-29T07:38:01.118Z,16.50
2023-04-29T07:40:27.965Z,16.20
2023-04-29T07:42:58.165Z,16.50
2023-04-29T07:45:26.511Z,17.00
2023-04-29T07:47:53.717Z,17.50
2023-04-29T07:50:20.879Z,18.10
2023-04-29T07:52:47.658Z,18.90
2023-04-29T07:55:23.525Z,19.20
2023-04-29T07:58:00.436Z,19.00
2023-04-29T08:00:31.918Z,18.80
2023-04-29T08:03:12.997Z,19.50
2023-04-29T08:05:50.169Z,19.70
2023-04-29T08:08:22.082Z,19.70
2023-04-29T08:10:49.351Z,19.80
2023-04-29T08:13:16.611Z,19.40
2023-04-29T08:15:43.799Z,20.30
2023-04-29T08:18:11.464Z,20.30
2023-04-29T08:20:38.627Z,20.60
2023-04-29T08:23:05.805Z,21.60
2023-04-29T08:25:33.299Z,21.10
2023-04-29T08:28:00.471Z,20.80
2023-04-29T08:30:28.384Z,20.70
2023-04-29T08:32:55.645Z,19.80
2023-04-29T08:35:22.939Z,19.20
2023-04-29T08:37:50.095Z,19.90
2023-04-29T08:40:17.331Z,19.40
2023-04-29T08:42:48.762Z,18.50
2023-04-29T08:45:17.335Z,18.60
2023-04-29T08:47:44.767Z,18.30
2023-04-29T08:50:13.069Z,19.00
2023-04-29T08:52:40.213Z,19.50
2023-04-29T08:55:08.226Z,20.00
2023-04-29T08:57:40.030Z,19.70
2023-04-29T09:00:11.173Z,19.10
2023-04-29T09:02:39.340Z,19.20
2023-04-29T09:05:11.082Z,19.20
2023-04-29T09:07:42.361Z,19.40
2023-04-29T09:10:10.774Z,18.80
2023-04-29T09:12:38.146Z,18.70
2023-04-29T09:15:05.683Z,18.40
2023-04-29T09:17:59.187Z,18.60
2023-04-29T09:20:27.763Z,19.30
2023-04-29T09:22:56.586Z,19.20
2023-04-29T09:25:23.906Z,19.30
2023-04-29T09:27:51.530Z,18.40
2023-04-29T09:30:19.609Z,17.80
2023-04-29T09:32:47.943Z,17.70
2023-04-29T09:35:25.365Z,18.70
2023-04-29T09:37:56.472Z,18.90
2023-04-29T09:40:36.510Z,19.70
2023-04-29T09:43:18.598Z,19.00
2023-04-29T09:45:47.481Z,19.40
2023-04-29T09:48:15.666Z,19.60
2023-04-29T09:50:44.160Z,19.60
2023-04-29T09:53:12.061Z,19.60
2023-04-29T09:56:02.424Z,18.30
2023-04-29T09:58:37.526Z,18.20
2023-04-29T10:01:06.398Z,18.90
2023-04-29T10:03:38.393Z,19.20
2023-04-29T10:06:07.390Z,19.50
2023-04-29T10:08:35.177Z,19.60
2023-04-29T10:11:04.317Z,18.90
2023-04-29T10:13:31.944Z,18.70
2023-04-29T10:16:29.620Z,18.90
2023-04-29T10:18:59.898Z,18.40
2023-04-29T10:21:31.503Z,19.10
2023-04-29T10:23:59.954Z,19.10
2023-04-29T10:26:29.210Z,19.60
2023-04-29T10:28:57.515Z,19.90
2023-04-29T10:31:27.638Z,19.70
2023-04-29T10:33:58.979Z,19.60
2023-04-29T10:36:27.759Z,19.60
2023-04-29T10:38:57.479Z,19.40
2023-04-29T10:41:28.660Z,18.60
2023-04-29T10:43:56.162Z,18.90
2023-04-29T10:46:26.838Z,19.50
2023-04-29T10:49:02.553Z,19.50
2023-04-29T10:51:34.012Z,19.60
2023-04-29T10:54:11.105Z,19.50
2023-04-29T10:56:42.044Z,19.90
2023-04-29T10:59:13.197Z,19.50
2023-04-29T11:01:44.314Z,19.80
2023-04-29T11:04:12.052Z,19.50
2023-04-29T11:06:41.515Z,18.90
2023-04-29T11:09:20.609Z,19.40
2023-04-29T11:11:58.298Z,19.60
2023-04-29T11:14:51.673Z,20.10
2023-04-29T11:17:20.631Z,20.00
2023-04-29T11:19:50.925Z,20.80
2023-04-29T11:22:27.498Z,19.60
2023-04-29T11:25:02.773Z,19.40
2023-04-29T11:27:37.504Z,19.60
2023-04-29T11:30:06.912Z,20.10
2023-04-29T11:32:38.513Z,20.20
2023-04-29T11:35:16.427Z,19.90
2023-04-29T11:37:45.573Z,19.10
2023-04-29T11:40:15.411Z,19.10
2023-04-29T11:42:45.734Z,18.70
2023-04-29T11:45:12.992Z,19.20
2023-04-29T11:47:45.542Z,20.00
2023-04-29T11:50:13.412Z,19.80
2023-04-29T11:52:41.651Z,19.30
2023-04-29T11:55:12.554Z,19.70
2023-04-29T11:57:40.520Z,19.60
2023-04-29T12:00:14.890Z,19.60
2023-04-29T12:02:46.316Z,18.70
2023-04-29T12:05:15.872Z,18.90
2023-04-29T12:07:43.767Z,19.20
2023-04-29T12:10:12.299Z,19.80
2023-04-29T12:12:46.612Z,20.20
2023-04-29T12:15:14.327Z,20.50
2023-04-29T12:17:42.516Z,20.50
2023-04-29T12:20:12.677Z,20.00
2023-04-29T12:22:41.455Z,19.90
2023-04-29T12:25:09.226Z,19.80
2023-04-29T12:27:39.386Z,20.30
2023-04-29T12:30:10.458Z,20.50
2023-04-29T12:32:38.174Z,20.50
2023-04-29T12:35:06.091Z,20.50
2023-04-29T12:37:35.328Z,20.50
2023-04-29T12:40:02.517Z,20.30
2023-04-29T12:42:34.241Z,21.00
2023-04-29T12:45:01.450Z,20.90
2023-04-29T12:47:36.974Z,21.10
2023-04-29T12:50:06.867Z,21.20
2023-04-29T12:52:35.949Z,21.10
2023-04-29T12:55:04.649Z,21.00
2023-04-29T12:57:31.905Z,21.70
2023-04-29T12:59:59.361Z,21.80
2023-04-29T13:02:26.765Z,21.60
2023-04-29T13:04:54.205Z,21.20
2023-04-29T13:07:22.177Z,21.90
2023-04-29T13:09:49.666Z,21.80
2023-04-29T13:12:17.832Z,21.80
2023-04-29T13:14:45.239Z,21.60
2023-04-29T13:17:12.944Z,20.80
2023-04-29T13:19:51.078Z,20.80
2023-04-29T13:22:19.322Z,20.70
2023-04-29T13:24:46.769Z,20.10
2023-04-29T13:27:14.068Z,20.00
2023-04-29T13:29:41.260Z,19.20
2023-04-29T13:32:08.801Z,19.60
2023-04-29T13:34:36.706Z,19.60
2023-04-29T13:37:03.913Z,19.50
2023-04-29T13:39:31.644Z,19.70
2023-04-29T13:41:59.668Z,20.20
2023-04-29T13:44:33.232Z,20.40
2023-04-29T13:47:06.930Z,20.50
2023-04-29T13:50:05.790Z,20.20
2023-04-29T13:55:25.888Z,20.20
2023-04-29T13:58:30.835Z,20.40
2023-04-29T14:01:01.370Z,20.60
2023-04-29T14:03:13.842Z,20.40
2023-04-29T14:05:42.319Z,20.20
2023-04-29T14:08:09.717Z,20.10
2023-04-29T14:10:37.170Z,20.20
2023-04-29T14:13:05.100Z,20.30
2023-04-29T14:15:32.408Z,20.20
2023-04-29T14:17:59.667Z,19.30
2023-04-29T14:20:26.943Z,19.70
2023-04-29T14:22:54.266Z,19.70
2023-04-29T14:25:21.435Z,20.00
2023-04-29T14:27:49.222Z,19.40
2023-04-29T14:30:16.443Z,19.90
2023-04-29T14:32:43.769Z,20.40
2023-04-29T14:35:11.217Z,20.90
2023-04-29T14:37:38.398Z,21.00
2023-04-29T14:40:06.532Z,21.20
2023-04-29T14:42:33.771Z,21.20
2023-04-29T14:45:01.085Z,21.10
2023-04-29T14:47:28.968Z,20.40
2023-04-29T14:49:56.447Z,20.50
2023-04-29T14:52:23.792Z,20.20
2023-04-29T14:54:51.255Z,19.40
2023-04-29T14:57:18.844Z,19.90
2023-04-29T14:59:46.041Z,19.60
2023-04-29T15:02:13.252Z,19.30
2023-04-29T15:04:45.436Z,19.00
2023-04-29T15:07:13.744Z,18.90
2023-04-29T15:09:41.418Z,19.10
2023-04-29T15:12:09.458Z,19.20
2023-04-29T15:14:36.990Z,18.80
2023-04-29T15:17:04.285Z,19.00
2023-04-29T15:19:31.452Z,19.30
2023-04-29T15:21:58.930Z,19.90
2023-04-29T15:24:26.112Z,19.90
2023-04-29T15:26:53.814Z,20.40
2023-04-29T15:29:21.404Z,20.50
2023-04-29T15:31:48.649Z,21.10
2023-04-29T15:34:16.017Z,19.90
2023-04-29T15:36:43.202Z,20.20
2023-04-29T15:39:11.021Z,21.00
2023-04-29T15:41:38.985Z,20.20
2023-04-29T15:44:06.243Z,20.50
2023-04-29T15:46:33.693Z,20.40
2023-04-29T15:49:01.098Z,20.90
2023-04-29T15:51:28.267Z,20.70
2023-04-29T15:53:55.442Z,20.80
2023-04-29T15:56:22.745Z,20.20
2023-04-29T15:58:49.960Z,20.10
2023-04-29T16:01:17.255Z,19.30
2023-04-29T16:03:44.435Z,19.30
2023-04-29T16:06:11.746Z,19.30
2023-04-29T16:08:38.939Z,19.50
2023-04-29T16:11:06.131Z,19.00
2023-04-29T16:13:36.145Z,18.70
2023-04-29T16:16:03.668Z,18.10
2023-04-29T16:18:30.870Z,17.80
2023-04-29T16:20:58.445Z,17.60
2023-04-29T16:23:25.638Z,17.70
2023-04-29T16:25:53.722Z,17.40
2023-04-29T16:28:21.296Z,17.40
2023-04-29T16:30:48.471Z,17.40
2023-04-29T16:33:16.375Z,17.00
2023-04-29T16:35:43.593Z,17.00
2023-04-29T16:38:11.416Z,16.80
2023-04-29T16:40:38.692Z,16.90
2023-04-29T16:43:05.841Z,16.90
2023-04-29T16:45:33.126Z,16.80
2023-04-29T16:48:01.689Z,16.60
2023-04-29T16:50:29.780Z,16.30
2023-04-29T16:52:57.024Z,16.40
2023-04-29T16:55:24.194Z,16.40
2023-04-29T16:57:51.374Z,16.30
2023-04-29T17:00:18.674Z,16.20
2023-04-29T17:02:47.448Z,16.20
2023-04-29T17:05:16.311Z,16.20
2023-04-29T17:07:43.517Z,16.00
2023-04-29T17:10:12.155Z,15.90
2023-04-29T17:12:39.789Z,15.80
2023-04-29T17:15:07.504Z,15.80
2023-04-29T17:17:34.949Z,15.80
2023-04-29T17:20:02.179Z,16.00
2023-04-29T17:22:29.368Z,16.10
2023-04-29T17:24:56.887Z,15.90
2023-04-29T17:27:24.043Z,15.90
2023-04-29T17:29:52.371Z,15.70
2023-04-29T17:32:28.079Z,16.10
2023-04-29T17:34:56.389Z,16.10
2023-04-29T17:37:25.650Z,16.50
2023-04-29T17:39:53.081Z,16.40
2023-04-29T17:42:23.391Z,16.40
2023-04-29T17:44:51.032Z,15.80
2023-04-29T17:47:19.373Z,15.90
2023-04-29T17:49:46.841Z,16.10
2023-04-29T17:52:15.103Z,16.10
2023-04-29T17:54:42.523Z,15.70
2023-04-29T17:57:09.811Z,15.60
2023-04-29T17:59:37.026Z,15.60
2023-04-29T18:02:04.287Z,15.80
2023-04-29T18:04:31.502Z,15.60
2023-04-29T18:06:58.649Z,15.30
2023-04-29T18:09:26.501Z,15.30
2023-04-29T18:11:53.765Z,15.90
2023-04-29T18:14:20.942Z,16.40
2023-04-29T18:16:48.456Z,16.30
2023-04-29T18:19:15.804Z,16.00
2023-04-29T18:21:42.972Z,15.80
2023-04-29T18:24:10.184Z,16.20
2023-04-29T18:26:37.412Z,16.10
2023-04-29T18:29:04.689Z,15.90
2023-04-29T18:31:31.909Z,15.70
2023-04-29T18:33:59.143Z,15.80
2023-04-29T18:36:26.624Z,16.00
2023-04-29T18:38:53.796Z,16.10
2023-04-29T18:41:20.962Z,15.60
2023-04-29T18:43:48.142Z,15.40
2023-04-29T18:46:15.405Z,15.50
2023-04-29T18:48:42.698Z,15.90
2023-04-29T18:51:09.844Z,15.90
2023-04-29T18:53:37.082Z,15.30
2023-04-29T18:56:04.450Z,15.30
2023-04-29T18:58:31.635Z,15.30
2023-04-29T19:00:59.777Z,15.20
2023-04-29T19:03:27.409Z,15.10
2023-04-29T19:05:54.731Z,14.90
2023-04-29T19:08:21.933Z,14.90
2023-04-29T19:10:49.157Z,15.10
2023-04-29T19:13:16.594Z,14.70
2023-04-29T19:15:43.857Z,14.80
2023-04-29T19:18:11.212Z,14.40
2023-04-29T19:20:38.411Z,14.50
2023-04-29T19:23:05.652Z,14.50
2023-04-29T19:25:32.882Z,14.50
2023-04-29T19:28:00.322Z,14.70
2023-04-29T19:30:27.524Z,14.80
2023-04-29T19:32:54.720Z,14.20
2023-04-29T19:35:21.976Z,14.30
2023-04-29T19:37:49.143Z,14.50
2023-04-29T19:40:16.386Z,14.80
2023-04-29T19:42:43.634Z,14.60
2023-04-29T19:45:12.579Z,14.70
2023-04-29T19:47:39.962Z,14.50
2023-04-29T19:50:07.760Z,15.10
2023-04-29T19:52:34.965Z,14.50
2023-04-29T19:55:02.252Z,14.90
2023-04-29T19:57:30.222Z,15.00
2023-04-29T19:59:57.414Z,14.60
2023-04-29T20:02:24.728Z,14.70
2023-04-29T20:04:52.097Z,15.50
2023-04-29T20:07:19.411Z,15.40
2023-04-29T20:09:46.818Z,15.00
2023-04-29T20:12:14.082Z,14.40
2023-04-29T20:14:41.334Z,14.10
2023-04-29T20:17:08.556Z,14.20
2023-04-29T20:19:35.895Z,14.80
2023-04-29T20:22:03.080Z,14.80
2023-04-29T20:24:30.558Z,14.70
2023-04-29T20:26:57.764Z,14.50
2023-04-29T20:29:25.054Z,14.40
2023-04-29T20:31:52.373Z,14.20
2023-04-29T20:34:20.094Z,14.20
2023-04-29T20:36:48.664Z,14.40
2023-04-29T20:39:18.060Z,14.20
2023-04-29T20:41:45.429Z,13.80
2023-04-29T20:44:12.914Z,13.80
2023-04-29T20:46:40.650Z,14.10
2023-04-29T20:49:07.900Z,14.20
2023-04-29T20:51:35.143Z,14.00
2023-04-29T20:54:02.320Z,14.00
2023-04-29T20:56:29.493Z,13.90
2023-04-29T20:58:58.762Z,13.70
2023-04-29T21:01:26.024Z,14.00
2023-04-29T21:03:53.352Z,13.90
2023-04-29T21:06:20.765Z,13.90
2023-04-29T21:08:48.113Z,14.20
2023-04-29T21:11:15.363Z,14.70
2023-04-29T21:13:42.575Z,14.50
2023-04-29T21:16:10.311Z,14.40
2023-04-29T21:18:37.513Z,14.30
2023-04-29T21:21:04.895Z,14.60
2023-04-29T21:23:32.057Z,15.00
2023-04-29T21:25:59.201Z,15.20
2023-04-29T21:28:26.894Z,15.50
2023-04-29T21:30:54.299Z,15.20
2023-04-29T21:33:21.563Z,15.20
2023-04-29T21:35:51.338Z,15.20
2023-04-29T21:38:18.888Z,15.20
2023-04-29T21:40:47.321Z,15.20
2023-04-29T21:43:16.010Z,15.30
2023-04-29T21:45:44.063Z,15.40
2023-04-29T21:48:16.311Z,15.10
2023-04-29T21:50:44.325Z,15.20
2023-04-29T21:53:14.447Z,15.30
2023-04-29T21:55:43.242Z,15.20
2023-04-29T21:58:10.951Z,15.30
2023-04-29T22:00:40.844Z,15.40
2023-04-29T22:03:09.001Z,15.10
2023-04-29T22:05:36.835Z,15.70
2023-04-29T22:08:07.287Z,15.60
2023-04-29T22:10:34.852Z,15.10
2023-04-29T22:13:02.112Z,15.20
2023-04-29T22:15:29.784Z,15.40
2023-04-29T22:17:57.816Z,15.20
2023-04-29T22:20:25.426Z,15.80
2023-04-29T22:22:52.803Z,15.60
2023-04-29T22:25:21.605Z,15.30
2023-04-29T22:27:49.793Z,15.40
2023-04-29T22:30:20.525Z,14.70
2023-04-29T22:32:47.758Z,15.30
2023-04-29T22:35:15.850Z,15.40
2023-04-29T22:37:43.039Z,15.10
2023-04-29T22:40:11.479Z,15.00
2023-04-29T22:42:39.587Z,15.20
2023-04-29T22:45:07.454Z,15.20
2023-04-29T22:47:34.647Z,14.90
2023-04-29T22:50:01.864Z,15.30
2023-04-29T22:52:29.088Z,14.80
2023-04-29T22:54:56.326Z,15.10
2023-04-29T22:57:23.532Z,14.80
2023-04-29T22:59:54.965Z,14.80
2023-04-29T23:02:27.530Z,15.10
2023-04-29T23:04:58.578Z,15.20
2023-04-29T23:07:26.489Z,15.00
2023-04-29T23:09:53.851Z,14.80
2023-04-29T23:12:21.328Z,15.00
2023-04-29T23:14:50.828Z,15.00
2023-04-29T23:17:18.089Z,14.70
2023-04-29T23:19:45.340Z,15.20
2023-04-29T23:22:12.488Z,15.10
2023-04-29T23:24:40.229Z,14.90
2023-04-29T23:27:07.514Z,15.00
2023-04-29T23:29:34.769Z,15.30
2023-04-29T23:32:02.057Z,14.60
2023-04-29T23:34:29.265Z,14.90
2023-04-29T23:36:56.472Z,15.20
2023-04-29T23:39:23.680Z,14.70
2023-04-29T23:41:51.669Z,15.30
2023-04-29T23:44:18.900Z,15.50
2023-04-29T23:46:46.215Z,15.40
2023-04-29T23:49:13.459Z,15.50
2023-04-29T23:51:40.605Z,15.30
2023-04-29T23:54:07.861Z,15.70
2023-04-29T23:56:35.078Z,14.90
2023-04-29T23:59:02.254Z,15.40
